sensor_id;sensor_type;location;lat;lon;timestamp;P1;durP1;ratioP1;P2;durP2;ratioP2
2259;SDS011;333;48.800;9.530;2023-04-01T00:01:22;1.67;;;0.70;;
2259;SDS011;333;48.800;9.530;2023-04-01T00:03:49;3.30;;;0.60;;
2259;SDS011;333;48.800;9.530;2023-04-01T00:06:16;2.60;;;1.23;;
2259;SDS011;333;48.800;9.530;2023-04-01T00:08:44;2.20;;;0.87;;
2259;SDS011;333;48.800;9.530;2023-04-01T00:11:13;2.33;;;0.73;;
2259;SDS011;333;48.800;9.530;2023-04-01T00:13:41;0.80;;;0.50;;
2259;SDS011;333;48.800;9.530;2023-04-01T00:16:08;2.40;;;0.80;;
2259;SDS011;333;48.800;9.530;2023-04-01T00:18:37;0.97;;;0.50;;
2259;SDS011;333;48.800;9.530;2023-04-01T00:21:05;1.10;;;0.70;;
2259;SDS011;333;48.800;9.530;2023-04-01T00:23:32;2.37;;;0.80;;
2259;SDS011;333;48.800;9.530;2023-04-01T00:26:00;2.33;;;0.83;;
2259;SDS011;333;48.800;9.530;2023-04-01T00:28:29;0.60;;;0.60;;
2259;SDS011;333;48.800;9.530;2023-04-01T00:30:56;1.73;;;1.00;;
2259;SDS011;333;48.800;9.530;2023-04-01T00:33:23;1.47;;;0.70;;
2259;SDS011;333;48.800;9.530;2023-04-01T00:35:50;4.23;;;0.63;;
2259;SDS011;333;48.800;9.530;2023-04-01T00:38:17;0.90;;;0.40;;
2259;SDS011;333;48.800;9.530;2023-04-01T00:40:44;2.20;;;1.20;;
2259;SDS011;333;48.800;9.530;2023-04-01T00:43:13;0.77;;;0.77;;
2259;SDS011;333;48.800;9.530;2023-04-01T00:45:44;1.50;;;0.50;;
2259;SDS011;333;48.800;9.530;2023-04-01T00:48:14;1.33;;;0.70;;
2259;SDS011;333;48.800;9.530;2023-04-01T00:50:45;0.60;;;0.50;;
2259;SDS011;333;48.800;9.530;2023-04-01T00:53:14;1.63;;;0.70;;
2259;SDS011;333;48.800;9.530;2023-04-01T00:55:45;1.30;;;0.60;;
2259;SDS011;333;48.800;9.530;2023-04-01T00:58:16;2.50;;;0.80;;
2259;SDS011;333;48.800;9.530;2023-04-01T01:00:48;2.80;;;1.00;;
2259;SDS011;333;48.800;9.530;2023-04-01T01:03:17;1.93;;;0.60;;
2259;SDS011;333;48.800;9.530;2023-04-01T01:05:52;0.83;;;0.57;;
2259;SDS011;333;48.800;9.530;2023-04-01T01:08:31;2.77;;;0.80;;
2259;SDS011;333;48.800;9.530;2023-04-01T01:11:09;1.33;;;0.67;;
2259;SDS011;333;48.800;9.530;2023-04-01T01:13:40;1.00;;;1.00;;
2259;SDS011;333;48.800;9.530;2023-04-01T01:16:14;1.33;;;0.70;;
2259;SDS011;333;48.800;9.530;2023-04-01T01:18:46;2.73;;;0.80;;
2259;SDS011;333;48.800;9.530;2023-04-01T01:24:21;1.10;;;0.87;;
2259;SDS011;333;48.800;9.530;2023-04-01T01:27:04;1.00;;;0.77;;
2259;SDS011;333;48.800;9.530;2023-04-01T01:32:42;0.60;;;0.50;;
2259;SDS011;333;48.800;9.530;2023-04-01T01:35:51;3.43;;;0.70;;
2259;SDS011;333;48.800;9.530;2023-04-01T01:38:21;2.00;;;0.60;;
2259;SDS011;333;48.800;9.530;2023-04-01T01:40:50;1.27;;;0.60;;
2259;SDS011;333;48.800;9.530;2023-04-01T01:43:19;1.23;;;0.40;;
2259;SDS011;333;48.800;9.530;2023-04-01T01:45:51;2.90;;;0.60;;
2259;SDS011;333;48.800;9.530;2023-04-01T01:48:20;1.83;;;1.00;;
2259;SDS011;333;48.800;9.530;2023-04-01T01:50:51;1.57;;;0.57;;
2259;SDS011;333;48.800;9.530;2023-04-01T01:53:19;1.07;;;0.40;;
2259;SDS011;333;48.800;9.530;2023-04-01T01:55:47;0.90;;;0.60;;
2259;SDS011;333;48.800;9.530;2023-04-01T01:58:16;2.00;;;0.83;;
2259;SDS011;333;48.800;9.530;2023-04-01T02:00:47;2.97;;;1.00;;
2259;SDS011;333;48.800;9.530;2023-04-01T02:03:17;0.70;;;0.50;;
2259;SDS011;333;48.800;9.530;2023-04-01T02:05:47;1.33;;;0.60;;
2259;SDS011;333;48.800;9.530;2023-04-01T02:08:17;2.30;;;0.63;;
2259;SDS011;333;48.800;9.530;2023-04-01T02:10:49;1.93;;;0.60;;
2259;SDS011;333;48.800;9.530;2023-04-01T02:13:23;0.40;;;0.30;;
2259;SDS011;333;48.800;9.530;2023-04-01T02:15:56;1.27;;;0.60;;
2259;SDS011;333;48.800;9.530;2023-04-01T02:18:27;1.30;;;0.43;;
2259;SDS011;333;48.800;9.530;2023-04-01T02:20:56;1.70;;;0.50;;
2259;SDS011;333;48.800;9.530;2023-04-01T02:23:26;1.90;;;0.73;;
2259;SDS011;333;48.800;9.530;2023-04-01T02:25:54;1.13;;;0.60;;
2259;SDS011;333;48.800;9.530;2023-04-01T02:28:22;0.33;;;0.30;;
2259;SDS011;333;48.800;9.530;2023-04-01T02:30:50;0.67;;;0.60;;
2259;SDS011;333;48.800;9.530;2023-04-01T02:33:18;0.70;;;0.30;;
2259;SDS011;333;48.800;9.530;2023-04-01T02:35:47;1.07;;;0.63;;
2259;SDS011;333;48.800;9.530;2023-04-01T02:38:14;1.23;;;0.40;;
2259;SDS011;333;48.800;9.530;2023-04-01T02:40:46;0.63;;;0.40;;
2259;SDS011;333;48.800;9.530;2023-04-01T02:43:15;0.77;;;0.60;;
2259;SDS011;333;48.800;9.530;2023-04-01T02:45:42;0.80;;;0.50;;
2259;SDS011;333;48.800;9.530;2023-04-01T02:48:09;0.93;;;0.40;;
2259;SDS011;333;48.800;9.530;2023-04-01T02:50:37;1.03;;;0.37;;
2259;SDS011;333;48.800;9.530;2023-04-01T02:53:05;2.00;;;0.30;;
2259;SDS011;333;48.800;9.530;2023-04-01T02:55:32;0.90;;;0.30;;
2259;SDS011;333;48.800;9.530;2023-04-01T02:58:00;0.50;;;0.40;;
2259;SDS011;333;48.800;9.530;2023-04-01T03:00:28;0.50;;;0.30;;
2259;SDS011;333;48.800;9.530;2023-04-01T03:02:55;4.93;;;0.50;;
2259;SDS011;333;48.800;9.530;2023-04-01T03:05:22;1.60;;;0.40;;
2259;SDS011;333;48.800;9.530;2023-04-01T03:07:50;3.67;;;0.30;;
2259;SDS011;333;48.800;9.530;2023-04-01T03:10:17;0.50;;;0.30;;
2259;SDS011;333;48.800;9.530;2023-04-01T03:12:44;0.80;;;0.33;;
2259;SDS011;333;48.800;9.530;2023-04-01T03:15:13;0.63;;;0.30;;
2259;SDS011;333;48.800;9.530;2023-04-01T03:17:40;0.40;;;0.30;;
2259;SDS011;333;48.800;9.530;2023-04-01T03:20:08;0.40;;;0.30;;
2259;SDS011;333;48.800;9.530;2023-04-01T03:22:37;0.40;;;0.20;;
2259;SDS011;333;48.800;9.530;2023-04-01T03:25:04;1.57;;;0.40;;
2259;SDS011;333;48.800;9.530;2023-04-01T03:27:32;0.87;;;0.30;;
2259;SDS011;333;48.800;9.530;2023-04-01T03:30:00;3.03;;;0.60;;
2259;SDS011;333;48.800;9.530;2023-04-01T03:32:28;1.13;;;0.20;;
2259;SDS011;333;48.800;9.530;2023-04-01T03:34:55;1.00;;;0.57;;
2259;SDS011;333;48.800;9.530;2023-04-01T03:37:23;1.67;;;1.20;;
2259;SDS011;333;48.800;9.530;2023-04-01T03:39:50;1.70;;;0.60;;
2259;SDS011;333;48.800;9.530;2023-04-01T03:42:17;1.60;;;0.40;;
2259;SDS011;333;48.800;9.530;2023-04-01T03:44:44;0.60;;;0.50;;
2259;SDS011;333;48.800;9.530;2023-04-01T03:47:11;0.70;;;0.40;;
2259;SDS011;333;48.800;9.530;2023-04-01T03:49:40;0.40;;;0.30;;
2259;SDS011;333;48.800;9.530;2023-04-01T03:52:08;1.10;;;0.87;;
2259;SDS011;333;48.800;9.530;2023-04-01T03:54:36;2.33;;;0.30;;
2259;SDS011;333;48.800;9.530;2023-04-01T03:57:03;0.40;;;0.30;;
2259;SDS011;333;48.800;9.530;2023-04-01T03:59:31;2.20;;;0.53;;
2259;SDS011;333;48.800;9.530;2023-04-01T04:01:58;0.70;;;0.47;;
2259;SDS011;333;48.800;9.530;2023-04-01T04:04:25;0.50;;;0.47;;
2259;SDS011;333;48.800;9.530;2023-04-01T04:06:53;1.93;;;0.30;;
2259;SDS011;333;48.800;9.530;2023-04-01T04:09:21;0.87;;;0.50;;
2259;SDS011;333;48.800;9.530;2023-04-01T04:11:48;0.70;;;0.47;;
2259;SDS011;333;48.800;9.530;2023-04-01T04:14:16;0.70;;;0.30;;
2259;SDS011;333;48.800;9.530;2023-04-01T04:16:43;1.63;;;0.53;;
2259;SDS011;333;48.800;9.530;2023-04-01T04:19:10;0.70;;;0.20;;
2259;SDS011;333;48.800;9.530;2023-04-01T04:21:37;0.50;;;0.20;;
2259;SDS011;333;48.800;9.530;2023-04-01T04:24:06;0.40;;;0.20;;
2259;SDS011;333;48.800;9.530;2023-04-01T04:26:34;1.83;;;0.30;;
2259;SDS011;333;48.800;9.530;2023-04-01T04:29:01;0.40;;;0.30;;
2259;SDS011;333;48.800;9.530;2023-04-01T04:31:28;0.40;;;0.30;;
2259;SDS011;333;48.800;9.530;2023-04-01T04:33:55;0.40;;;0.30;;
2259;SDS011;333;48.800;9.530;2023-04-01T04:36:24;0.30;;;0.23;;
2259;SDS011;333;48.800;9.530;2023-04-01T04:38:51;0.90;;;0.90;;
2259;SDS011;333;48.800;9.530;2023-04-01T04:41:20;1.70;;;0.37;;
2259;SDS011;333;48.800;9.530;2023-04-01T04:43:48;1.27;;;0.50;;
2259;SDS011;333;48.800;9.530;2023-04-01T04:46:16;0.50;;;0.30;;
2259;SDS011;333;48.800;9.530;2023-04-01T04:48:43;0.30;;;0.30;;
2259;SDS011;333;48.800;9.530;2023-04-01T04:51:12;0.60;;;0.47;;
2259;SDS011;333;48.800;9.530;2023-04-01T04:53:40;0.60;;;0.30;;
2259;SDS011;333;48.800;9.530;2023-04-01T04:56:07;0.47;;;0.30;;
2259;SDS011;333;48.800;9.530;2023-04-01T04:58:36;1.10;;;0.80;;
2259;SDS011;333;48.800;9.530;2023-04-01T05:01:07;0.53;;;0.50;;
2259;SDS011;333;48.800;9.530;2023-04-01T05:03:35;0.90;;;0.60;;
2259;SDS011;333;48.800;9.530;2023-04-01T05:06:03;0.40;;;0.30;;
2259;SDS011;333;48.800;9.530;2023-04-01T05:08:30;0.93;;;0.43;;
2259;SDS011;333;48.800;9.530;2023-04-01T05:10:57;1.70;;;0.50;;
2259;SDS011;333;48.800;9.530;2023-04-01T05:13:25;1.10;;;0.50;;
2259;SDS011;333;48.800;9.530;2023-04-01T05:15:53;1.27;;;0.40;;
2259;SDS011;333;48.800;9.530;2023-04-01T05:18:21;0.83;;;0.40;;
2259;SDS011;333;48.800;9.530;2023-04-01T05:20:48;0.60;;;0.50;;
2259;SDS011;333;48.800;9.530;2023-04-01T05:23:16;1.17;;;0.50;;
2259;SDS011;333;48.800;9.530;2023-04-01T05:25:45;1.60;;;0.37;;
2259;SDS011;333;48.800;9.530;2023-04-01T05:28:12;0.80;;;0.50;;
2259;SDS011;333;48.800;9.530;2023-04-01T05:30:40;0.30;;;0.30;;
2259;SDS011;333;48.800;9.530;2023-04-01T05:33:09;1.40;;;0.50;;
2259;SDS011;333;48.800;9.530;2023-04-01T05:35:37;0.50;;;0.40;;
2259;SDS011;333;48.800;9.530;2023-04-01T05:38:04;0.50;;;0.33;;
2259;SDS011;333;48.800;9.530;2023-04-01T05:40:31;0.50;;;0.40;;
2259;SDS011;333;48.800;9.530;2023-04-01T05:42:58;0.60;;;0.50;;
2259;SDS011;333;48.800;9.530;2023-04-01T05:45:26;1.20;;;0.40;;
2259;SDS011;333;48.800;9.530;2023-04-01T05:47:53;4.33;;;0.90;;
2259;SDS011;333;48.800;9.530;2023-04-01T05:50:21;1.57;;;0.43;;
2259;SDS011;333;48.800;9.530;2023-04-01T05:52:49;2.87;;;0.50;;
2259;SDS011;333;48.800;9.530;2023-04-01T05:55:16;1.27;;;0.40;;
2259;SDS011;333;48.800;9.530;2023-04-01T05:57:44;1.00;;;0.60;;
2259;SDS011;333;48.800;9.530;2023-04-01T06:00:12;0.93;;;0.83;;
2259;SDS011;333;48.800;9.530;2023-04-01T06:02:39;0.50;;;0.40;;
2259;SDS011;333;48.800;9.530;2023-04-01T06:05:11;1.00;;;0.40;;
2259;SDS011;333;48.800;9.530;2023-04-01T06:07:44;2.63;;;0.73;;
2259;SDS011;333;48.800;9.530;2023-04-01T06:10:13;1.67;;;0.47;;
2259;SDS011;333;48.800;9.530;2023-04-01T06:12:45;1.60;;;0.87;;
2259;SDS011;333;48.800;9.530;2023-04-01T06:15:25;2.10;;;0.80;;
2259;SDS011;333;48.800;9.530;2023-04-01T06:21:04;0.63;;;0.53;;
2259;SDS011;333;48.800;9.530;2023-04-01T06:23:47;0.50;;;0.30;;
2259;SDS011;333;48.800;9.530;2023-04-01T06:26:24;1.17;;;0.50;;
2259;SDS011;333;48.800;9.530;2023-04-01T06:29:18;0.60;;;0.40;;
2259;SDS011;333;48.800;9.530;2023-04-01T06:32:01;0.67;;;0.47;;
2259;SDS011;333;48.800;9.530;2023-04-01T06:34:45;0.80;;;0.40;;
2259;SDS011;333;48.800;9.530;2023-04-01T06:37:40;1.37;;;0.73;;
2259;SDS011;333;48.800;9.530;2023-04-01T06:43:28;0.90;;;0.50;;
2259;SDS011;333;48.800;9.530;2023-04-01T06:46:02;1.17;;;0.67;;
2259;SDS011;333;48.800;9.530;2023-04-01T06:48:40;1.50;;;0.50;;
2259;SDS011;333;48.800;9.530;2023-04-01T06:51:19;0.50;;;0.30;;
2259;SDS011;333;48.800;9.530;2023-04-01T06:53:54;1.17;;;0.50;;
2259;SDS011;333;48.800;9.530;2023-04-01T06:56:27;0.40;;;0.40;;
2259;SDS011;333;48.800;9.530;2023-04-01T06:58:57;0.60;;;0.30;;
2259;SDS011;333;48.800;9.530;2023-04-01T07:01:27;1.00;;;0.63;;
2259;SDS011;333;48.800;9.530;2023-04-01T07:04:00;0.70;;;0.23;;
2259;SDS011;333;48.800;9.530;2023-04-01T07:06:32;2.00;;;1.03;;
2259;SDS011;333;48.800;9.530;2023-04-01T07:09:05;0.70;;;0.43;;
2259;SDS011;333;48.800;9.530;2023-04-01T07:11:38;1.63;;;0.53;;
2259;SDS011;333;48.800;9.530;2023-04-01T07:14:06;0.83;;;0.40;;
2259;SDS011;333;48.800;9.530;2023-04-01T07:16:43;0.60;;;0.60;;
2259;SDS011;333;48.800;9.530;2023-04-01T07:19:16;1.77;;;0.70;;
2259;SDS011;333;48.800;9.530;2023-04-01T07:21:51;1.17;;;0.50;;
2259;SDS011;333;48.800;9.530;2023-04-01T07:24:23;1.07;;;0.70;;
2259;SDS011;333;48.800;9.530;2023-04-01T07:26:55;1.53;;;0.50;;
2259;SDS011;333;48.800;9.530;2023-04-01T07:29:23;1.50;;;0.70;;
2259;SDS011;333;48.800;9.530;2023-04-01T07:34:42;1.23;;;0.43;;
2259;SDS011;333;48.800;9.530;2023-04-01T07:37:28;1.10;;;0.70;;
2259;SDS011;333;48.800;9.530;2023-04-01T07:40:01;3.07;;;0.87;;
2259;SDS011;333;48.800;9.530;2023-04-01T07:42:42;0.67;;;0.63;;
2259;SDS011;333;48.800;9.530;2023-04-01T07:45:21;2.03;;;0.70;;
2259;SDS011;333;48.800;9.530;2023-04-01T07:47:59;1.70;;;0.47;;
2259;SDS011;333;48.800;9.530;2023-04-01T07:50:38;0.60;;;0.50;;
2259;SDS011;333;48.800;9.530;2023-04-01T07:53:14;0.77;;;0.50;;
2259;SDS011;333;48.800;9.530;2023-04-01T07:55:49;1.27;;;0.60;;
2259;SDS011;333;48.800;9.530;2023-04-01T07:58:26;0.70;;;0.50;;
2259;SDS011;333;48.800;9.530;2023-04-01T08:01:02;1.77;;;1.00;;
2259;SDS011;333;48.800;9.530;2023-04-01T08:03:35;0.80;;;0.40;;
2259;SDS011;333;48.800;9.530;2023-04-01T08:06:16;0.40;;;0.37;;
2259;SDS011;333;48.800;9.530;2023-04-01T08:08:54;0.60;;;0.50;;
2259;SDS011;333;48.800;9.530;2023-04-01T08:11:32;1.97;;;0.50;;
2259;SDS011;333;48.800;9.530;2023-04-01T08:14:11;0.50;;;0.40;;
2259;SDS011;333;48.800;9.530;2023-04-01T08:16:46;0.83;;;0.53;;
2259;SDS011;333;48.800;9.530;2023-04-01T08:19:22;0.60;;;0.43;;
2259;SDS011;333;48.800;9.530;2023-04-01T08:21:57;1.03;;;0.50;;
2259;SDS011;333;48.800;9.530;2023-04-01T08:24:33;1.13;;;0.40;;
2259;SDS011;333;48.800;9.530;2023-04-01T08:27:03;1.80;;;0.40;;
2259;SDS011;333;48.800;9.530;2023-04-01T08:29:39;1.67;;;1.57;;
2259;SDS011;333;48.800;9.530;2023-04-01T08:32:12;0.50;;;0.50;;
2259;SDS011;333;48.800;9.530;2023-04-01T08:34:45;0.70;;;0.50;;
2259;SDS011;333;48.800;9.530;2023-04-01T08:37:17;1.27;;;0.60;;
2259;SDS011;333;48.800;9.530;2023-04-01T08:39:49;0.50;;;0.40;;
2259;SDS011;333;48.800;9.530;2023-04-01T08:45:27;1.57;;;0.87;;
2259;SDS011;333;48.800;9.530;2023-04-01T08:54:16;1.30;;;0.50;;
2259;SDS011;333;48.800;9.530;2023-04-01T08:57:01;6.90;;;0.77;;
2259;SDS011;333;48.800;9.530;2023-04-01T08:59:38;1.40;;;0.70;;
2259;SDS011;333;48.800;9.530;2023-04-01T09:02:22;1.23;;;0.70;;
2259;SDS011;333;48.800;9.530;2023-04-01T09:05:20;1.53;;;0.40;;
2259;SDS011;333;48.800;9.530;2023-04-01T09:08:17;0.80;;;0.50;;
2259;SDS011;333;48.800;9.530;2023-04-01T09:10:56;2.97;;;0.77;;
2259;SDS011;333;48.800;9.530;2023-04-01T09:13:37;1.23;;;0.47;;
2259;SDS011;333;48.800;9.530;2023-04-01T09:16:20;1.07;;;0.80;;
2259;SDS011;333;48.800;9.530;2023-04-01T09:19:14;2.37;;;1.20;;
2259;SDS011;333;48.800;9.530;2023-04-01T09:25:06;0.73;;;0.40;;
2259;SDS011;333;48.800;9.530;2023-04-01T09:27:52;1.10;;;0.50;;
2259;SDS011;333;48.800;9.530;2023-04-01T09:33:49;0.40;;;0.40;;
2259;SDS011;333;48.800;9.530;2023-04-01T09:36:52;1.03;;;0.40;;
2259;SDS011;333;48.800;9.530;2023-04-01T09:39:35;1.17;;;0.60;;
2259;SDS011;333;48.800;9.530;2023-04-01T09:42:13;1.10;;;0.73;;
2259;SDS011;333;48.800;9.530;2023-04-01T09:44:52;4.33;;;0.53;;
2259;SDS011;333;48.800;9.530;2023-04-01T09:47:28;1.33;;;0.63;;
2259;SDS011;333;48.800;9.530;2023-04-01T09:50:31;1.90;;;0.60;;
2259;SDS011;333;48.800;9.530;2023-04-01T09:53:17;0.40;;;0.40;;
2259;SDS011;333;48.800;9.530;2023-04-01T09:56:05;0.83;;;0.50;;
2259;SDS011;333;48.800;9.530;2023-04-01T09:59:15;0.93;;;0.67;;
2259;SDS011;333;48.800;9.530;2023-04-01T10:11:41;0.67;;;0.47;;
2259;SDS011;333;48.800;9.530;2023-04-01T10:14:42;1.00;;;0.63;;
2259;SDS011;333;48.800;9.530;2023-04-01T10:17:32;0.53;;;0.47;;
2259;SDS011;333;48.800;9.530;2023-04-01T10:20:31;0.60;;;0.50;;
2259;SDS011;333;48.800;9.530;2023-04-01T10:23:19;1.07;;;0.70;;
2259;SDS011;333;48.800;9.530;2023-04-01T10:29:02;0.60;;;0.33;;
2259;SDS011;333;48.800;9.530;2023-04-01T10:32:06;0.60;;;0.40;;
2259;SDS011;333;48.800;9.530;2023-04-01T10:35:14;1.03;;;0.50;;
2259;SDS011;333;48.800;9.530;2023-04-01T10:38:16;0.50;;;0.40;;
2259;SDS011;333;48.800;9.530;2023-04-01T10:41:16;0.50;;;0.30;;
2259;SDS011;333;48.800;9.530;2023-04-01T10:44:18;1.00;;;0.50;;
2259;SDS011;333;48.800;9.530;2023-04-01T10:53:32;1.20;;;0.57;;
2259;SDS011;333;48.800;9.530;2023-04-01T11:02:20;0.40;;;0.30;;
2259;SDS011;333;48.800;9.530;2023-04-01T11:05:26;0.30;;;0.20;;
2259;SDS011;333;48.800;9.530;2023-04-01T11:12:10;0.70;;;0.50;;
2259;SDS011;333;48.800;9.530;2023-04-01T11:18:18;0.40;;;0.30;;
2259;SDS011;333;48.800;9.530;2023-04-01T11:24:21;1.43;;;0.40;;
2259;SDS011;333;48.800;9.530;2023-04-01T11:27:17;0.53;;;0.43;;
2259;SDS011;333;48.800;9.530;2023-04-01T11:32:57;0.50;;;0.43;;
2259;SDS011;333;48.800;9.530;2023-04-01T11:41:19;0.50;;;0.40;;
2259;SDS011;333;48.800;9.530;2023-04-01T11:43:57;0.70;;;0.60;;
2259;SDS011;333;48.800;9.530;2023-04-01T11:46:39;0.40;;;0.30;;
2259;SDS011;333;48.800;9.530;2023-04-01T11:52:17;0.43;;;0.27;;
2259;SDS011;333;48.800;9.530;2023-04-01T11:55:12;0.60;;;0.50;;
2259;SDS011;333;48.800;9.530;2023-04-01T11:58:04;0.50;;;0.43;;
2259;SDS011;333;48.800;9.530;2023-04-01T12:07:03;0.50;;;0.40;;
2259;SDS011;333;48.800;9.530;2023-04-01T12:09:41;1.10;;;0.97;;
2259;SDS011;333;48.800;9.530;2023-04-01T12:12:20;1.00;;;0.50;;
2259;SDS011;333;48.800;9.530;2023-04-01T12:14:57;1.50;;;0.80;;
2259;SDS011;333;48.800;9.530;2023-04-01T12:17:39;1.03;;;0.70;;
2259;SDS011;333;48.800;9.530;2023-04-01T12:20:20;3.27;;;1.80;;
2259;SDS011;333;48.800;9.530;2023-04-01T12:22:56;1.03;;;0.93;;
2259;SDS011;333;48.800;9.530;2023-04-01T12:25:37;0.70;;;0.70;;
2259;SDS011;333;48.800;9.530;2023-04-01T12:28:19;0.40;;;0.30;;
2259;SDS011;333;48.800;9.530;2023-04-01T12:30:54;0.30;;;0.30;;
2259;SDS011;333;48.800;9.530;2023-04-01T12:33:47;0.30;;;0.30;;
2259;SDS011;333;48.800;9.530;2023-04-01T12:36:35;0.50;;;0.30;;
2259;SDS011;333;48.800;9.530;2023-04-01T12:39:22;0.40;;;0.33;;
2259;SDS011;333;48.800;9.530;2023-04-01T12:42:02;0.40;;;0.33;;
2259;SDS011;333;48.800;9.530;2023-04-01T12:44:47;0.50;;;0.30;;
2259;SDS011;333;48.800;9.530;2023-04-01T12:47:38;0.50;;;0.30;;
2259;SDS011;333;48.800;9.530;2023-04-01T12:50:33;0.50;;;0.30;;
2259;SDS011;333;48.800;9.530;2023-04-01T12:56:06;0.53;;;0.43;;
2259;SDS011;333;48.800;9.530;2023-04-01T13:04:35;0.50;;;0.40;;
2259;SDS011;333;48.800;9.530;2023-04-01T13:07:24;0.40;;;0.37;;
2259;SDS011;333;48.800;9.530;2023-04-01T13:10:15;0.40;;;0.30;;
2259;SDS011;333;48.800;9.530;2023-04-01T13:13:06;0.40;;;0.30;;
2259;SDS011;333;48.800;9.530;2023-04-01T13:15:50;0.87;;;0.30;;
2259;SDS011;333;48.800;9.530;2023-04-01T13:18:25;0.60;;;0.40;;
2259;SDS011;333;48.800;9.530;2023-04-01T13:21:01;0.40;;;0.30;;
2259;SDS011;333;48.800;9.530;2023-04-01T13:23:38;0.30;;;0.20;;
2259;SDS011;333;48.800;9.530;2023-04-01T13:26:22;0.53;;;0.40;;
2259;SDS011;333;48.800;9.530;2023-04-01T13:28:56;0.90;;;0.40;;
2259;SDS011;333;48.800;9.530;2023-04-01T13:31:36;0.70;;;0.30;;
2259;SDS011;333;48.800;9.530;2023-04-01T13:34:19;0.43;;;0.30;;
2259;SDS011;333;48.800;9.530;2023-04-01T13:36:59;0.60;;;0.30;;
2259;SDS011;333;48.800;9.530;2023-04-01T13:39:41;0.30;;;0.20;;
2259;SDS011;333;48.800;9.530;2023-04-01T13:42:23;0.43;;;0.33;;
2259;SDS011;333;48.800;9.530;2023-04-01T13:44:56;0.97;;;0.30;;
2259;SDS011;333;48.800;9.530;2023-04-01T13:50:36;0.50;;;0.30;;
2259;SDS011;333;48.800;9.530;2023-04-01T13:53:33;0.50;;;0.30;;
2259;SDS011;333;48.800;9.530;2023-04-01T13:56:32;0.50;;;0.30;;
2259;SDS011;333;48.800;9.530;2023-04-01T14:02:13;0.63;;;0.50;;
2259;SDS011;333;48.800;9.530;2023-04-01T14:07:55;0.70;;;0.40;;
2259;SDS011;333;48.800;9.530;2023-04-01T14:10:29;0.50;;;0.37;;
2259;SDS011;333;48.800;9.530;2023-04-01T14:13:05;0.60;;;0.40;;
2259;SDS011;333;48.800;9.530;2023-04-01T14:15:41;0.70;;;0.30;;
2259;SDS011;333;48.800;9.530;2023-04-01T14:18:23;0.50;;;0.50;;
2259;SDS011;333;48.800;9.530;2023-04-01T14:21:13;0.50;;;0.40;;
2259;SDS011;333;48.800;9.530;2023-04-01T14:23:55;1.10;;;0.60;;
2259;SDS011;333;48.800;9.530;2023-04-01T14:30:12;0.87;;;0.40;;
2259;SDS011;333;48.800;9.530;2023-04-01T14:32:55;0.80;;;0.50;;
2259;SDS011;333;48.800;9.530;2023-04-01T14:35:34;0.80;;;0.60;;
2259;SDS011;333;48.800;9.530;2023-04-01T14:41:05;0.50;;;0.50;;
2259;SDS011;333;48.800;9.530;2023-04-01T14:46:53;0.40;;;0.30;;
2259;SDS011;333;48.800;9.530;2023-04-01T14:49:44;0.53;;;0.40;;
2259;SDS011;333;48.800;9.530;2023-04-01T14:52:14;0.40;;;0.30;;
2259;SDS011;333;48.800;9.530;2023-04-01T14:54:48;0.50;;;0.50;;
2259;SDS011;333;48.800;9.530;2023-04-01T14:57:22;0.50;;;0.50;;
2259;SDS011;333;48.800;9.530;2023-04-01T14:59:51;1.17;;;0.30;;
2259;SDS011;333;48.800;9.530;2023-04-01T15:02:33;0.53;;;0.50;;
2259;SDS011;333;48.800;9.530;2023-04-01T15:05:15;0.40;;;0.40;;
2259;SDS011;333;48.800;9.530;2023-04-01T15:07:57;1.17;;;0.77;;
2259;SDS011;333;48.800;9.530;2023-04-01T15:13:20;0.70;;;0.70;;
2259;SDS011;333;48.800;9.530;2023-04-01T15:16:00;1.17;;;1.00;;
2259;SDS011;333;48.800;9.530;2023-04-01T15:18:39;0.50;;;0.40;;
2259;SDS011;333;48.800;9.530;2023-04-01T15:21:18;0.60;;;0.60;;
2259;SDS011;333;48.800;9.530;2023-04-01T15:24:00;1.47;;;0.90;;
2259;SDS011;333;48.800;9.530;2023-04-01T15:26:47;0.90;;;0.70;;
2259;SDS011;333;48.800;9.530;2023-04-01T15:29:35;0.50;;;0.50;;
2259;SDS011;333;48.800;9.530;2023-04-01T15:32:17;0.60;;;0.60;;
2259;SDS011;333;48.800;9.530;2023-04-01T15:34:53;0.60;;;0.40;;
2259;SDS011;333;48.800;9.530;2023-04-01T15:37:28;1.10;;;0.80;;
2259;SDS011;333;48.800;9.530;2023-04-01T15:40:08;0.50;;;0.50;;
2259;SDS011;333;48.800;9.530;2023-04-01T15:42:53;0.47;;;0.40;;
2259;SDS011;333;48.800;9.530;2023-04-01T15:45:35;0.40;;;0.20;;
2259;SDS011;333;48.800;9.530;2023-04-01T15:48:20;0.43;;;0.40;;
2259;SDS011;333;48.800;9.530;2023-04-01T15:51:01;0.53;;;0.53;;
2259;SDS011;333;48.800;9.530;2023-04-01T15:53:52;0.57;;;0.57;;
2259;SDS011;333;48.800;9.530;2023-04-01T15:56:35;0.70;;;0.70;;
2259;SDS011;333;48.800;9.530;2023-04-01T15:59:14;0.60;;;0.53;;
2259;SDS011;333;48.800;9.530;2023-04-01T16:01:52;0.57;;;0.53;;
2259;SDS011;333;48.800;9.530;2023-04-01T16:04:29;0.90;;;0.40;;
2259;SDS011;333;48.800;9.530;2023-04-01T16:07:13;0.63;;;0.60;;
2259;SDS011;333;48.800;9.530;2023-04-01T16:09:59;1.07;;;0.90;;
2259;SDS011;333;48.800;9.530;2023-04-01T16:12:49;0.33;;;0.30;;
2259;SDS011;333;48.800;9.530;2023-04-01T16:15:29;1.07;;;0.50;;
2259;SDS011;333;48.800;9.530;2023-04-01T16:18:13;0.50;;;0.40;;
2259;SDS011;333;48.800;9.530;2023-04-01T16:20:57;0.40;;;0.30;;
2259;SDS011;333;48.800;9.530;2023-04-01T16:23:33;0.57;;;0.40;;
2259;SDS011;333;48.800;9.530;2023-04-01T16:26:05;0.90;;;0.60;;
2259;SDS011;333;48.800;9.530;2023-04-01T16:28:36;0.70;;;0.53;;
2259;SDS011;333;48.800;9.530;2023-04-01T16:31:09;1.43;;;0.60;;
2259;SDS011;333;48.800;9.530;2023-04-01T16:33:44;1.00;;;0.83;;
2259;SDS011;333;48.800;9.530;2023-04-01T16:36:20;0.77;;;0.50;;
2259;SDS011;333;48.800;9.530;2023-04-01T16:38:55;0.60;;;0.40;;
2259;SDS011;333;48.800;9.530;2023-04-01T16:41:36;0.83;;;0.70;;
2259;SDS011;333;48.800;9.530;2023-04-01T16:44:10;1.53;;;0.60;;
2259;SDS011;333;48.800;9.530;2023-04-01T16:46:45;0.70;;;0.63;;
2259;SDS011;333;48.800;9.530;2023-04-01T16:49:31;1.00;;;1.00;;
2259;SDS011;333;48.800;9.530;2023-04-01T16:52:15;2.13;;;1.50;;
2259;SDS011;333;48.800;9.530;2023-04-01T16:54:58;0.40;;;0.30;;
2259;SDS011;333;48.800;9.530;2023-04-01T16:57:31;0.97;;;0.80;;
2259;SDS011;333;48.800;9.530;2023-04-01T17:00:14;1.03;;;0.70;;
2259;SDS011;333;48.800;9.530;2023-04-01T17:02:46;4.13;;;0.97;;
2259;SDS011;333;48.800;9.530;2023-04-01T17:05:18;1.07;;;0.87;;
2259;SDS011;333;48.800;9.530;2023-04-01T17:07:48;1.00;;;0.83;;
2259;SDS011;333;48.800;9.530;2023-04-01T17:10:28;0.83;;;0.83;;
2259;SDS011;333;48.800;9.530;2023-04-01T17:16:14;0.77;;;0.77;;
2259;SDS011;333;48.800;9.530;2023-04-01T17:19:00;1.47;;;0.80;;
2259;SDS011;333;48.800;9.530;2023-04-01T17:21:43;1.10;;;1.00;;
2259;SDS011;333;48.800;9.530;2023-04-01T17:24:22;1.73;;;1.63;;
2259;SDS011;333;48.800;9.530;2023-04-01T17:27:01;1.80;;;1.70;;
2259;SDS011;333;48.800;9.530;2023-04-01T17:29:46;4.50;;;4.10;;
2259;SDS011;333;48.800;9.530;2023-04-01T17:32:28;5.40;;;3.93;;
2259;SDS011;333;48.800;9.530;2023-04-01T17:35:09;3.03;;;2.53;;
2259;SDS011;333;48.800;9.530;2023-04-01T17:37:45;6.87;;;6.23;;
2259;SDS011;333;48.800;9.530;2023-04-01T17:40:30;2.57;;;2.07;;
2259;SDS011;333;48.800;9.530;2023-04-01T17:43:12;1.77;;;1.20;;
2259;SDS011;333;48.800;9.530;2023-04-01T17:45:47;1.60;;;1.50;;
2259;SDS011;333;48.800;9.530;2023-04-01T17:48:21;2.03;;;1.80;;
2259;SDS011;333;48.800;9.530;2023-04-01T17:51:02;1.63;;;1.40;;
2259;SDS011;333;48.800;9.530;2023-04-01T17:53:47;1.67;;;1.40;;
2259;SDS011;333;48.800;9.530;2023-04-01T17:56:44;1.27;;;0.90;;
2259;SDS011;333;48.800;9.530;2023-04-01T17:59:22;0.93;;;0.83;;
2259;SDS011;333;48.800;9.530;2023-04-01T18:02:00;1.97;;;1.77;;
2259;SDS011;333;48.800;9.530;2023-04-01T18:04:46;3.40;;;1.47;;
2259;SDS011;333;48.800;9.530;2023-04-01T18:07:30;1.70;;;1.30;;
2259;SDS011;333;48.800;9.530;2023-04-01T18:10:13;1.93;;;1.50;;
2259;SDS011;333;48.800;9.530;2023-04-01T18:13:05;3.83;;;3.50;;
2259;SDS011;333;48.800;9.530;2023-04-01T18:15:46;1.50;;;1.43;;
2259;SDS011;333;48.800;9.530;2023-04-01T18:18:34;1.50;;;1.40;;
2259;SDS011;333;48.800;9.530;2023-04-01T18:21:07;3.10;;;2.90;;
2259;SDS011;333;48.800;9.530;2023-04-01T18:23:43;2.00;;;1.80;;
2259;SDS011;333;48.800;9.530;2023-04-01T18:26:18;2.03;;;1.83;;